Time;durP1;ratioP1;P1;durP2;ratioP2;P2;SDS_P1;SDS_P2;PMS_P1;PMS_P2;Temp;Humidity;BMP_temperature;BMP_pressure;BME280_temperature;BME280_humidity;BME280_pressure;Samples;Min_cycle;Max_cycle;Signal;HPM_P1;HPM_P2
2022/07/27 00:01:12;;;;;;;4.20;3.00;;;20.60;93.10;;;;;;4914868;29;20462;-70
2022/07/27 00:03:38;;;;;;;4.23;3.10;;;20.60;93.80;;;;;;4915352;29;20434;-70
2022/07/27 00:06:04;;;;;;;3.37;3.07;;;20.50;94.00;;;;;;4915401;29;20497;-69
2022/07/27 00:08:30;;;;;;;3.63;3.40;;;20.50;93.50;;;;;;4915928;29;20233;-69
2022/07/27 00:10:56;;;;;;;3.70;3.40;;;20.50;92.80;;;;;;4915429;29;20186;-70
2022/07/27 00:13:22;;;;;;;3.77;3.40;;;20.50;93.10;;;;;;4915294;29;20196;-70
2022/07/27 00:15:48;;;;;;;4.67;3.23;;;20.50;93.30;;;;;;4916034;29;20462;-72
2022/07/27 00:18:13;;;;;;;4.00;3.20;;;20.50;92.90;;;;;;4914866;29;20514;-70
2022/07/27 00:20:40;;;;;;;6.90;3.80;;;20.40;93.30;;;;;;4915264;29;20473;-69
2022/07/27 00:23:06;;;;;;;3.30;3.10;;;20.30;93.00;;;;;;4915030;29;20511;-69
2022/07/27 00:25:32;;;;;;;3.80;3.40;;;20.30;93.60;;;;;;4916013;29;20852;-69
2022/07/27 00:27:58;;;;;;;4.40;4.10;;;20.30;94.70;;;;;;4914770;29;20438;-70
2022/07/27 00:30:24;;;;;;;3.80;3.30;;;20.20;96.30;;;;;;4916237;29;20222;-69
2022/07/27 00:32:51;;;;;;;4.23;3.60;;;20.10;97.60;;;;;;4915495;29;20639;-73
2022/07/27 00:35:18;;;;;;;3.73;3.43;;;20.10;94.90;;;;;;4914776;29;20426;-70
2022/07/27 00:37:44;;;;;;;3.13;2.93;;;20.10;96.30;;;;;;4915932;29;20497;-69
2022/07/27 00:40:10;;;;;;;3.07;2.93;;;20.10;95.70;;;;;;4914726;29;20545;-69
2022/07/27 00:42:36;;;;;;;2.93;2.83;;;20.20;97.20;;;;;;4916055;29;20175;-69
2022/07/27 00:45:03;;;;;;;3.50;3.20;;;20.10;95.40;;;;;;4915026;29;20469;-69
2022/07/27 00:47:29;;;;;;;3.83;3.27;;;20.10;95.00;;;;;;4914912;29;20470;-69
2022/07/27 00:49:56;;;;;;;3.10;3.00;;;20.10;94.90;;;;;;4913812;29;20489;-70
2022/07/27 00:52:22;;;;;;;3.70;3.40;;;20.10;93.70;;;;;;4915769;29;20418;-69
2022/07/27 00:54:48;;;;;;;4.43;3.33;;;20.10;94.30;;;;;;4915780;29;20415;-69
2022/07/27 00:57:15;;;;;;;3.73;3.33;;;20.00;93.30;;;;;;4913643;29;20193;-69
2022/07/27 00:59:41;;;;;;;3.50;3.30;;;20.00;94.80;;;;;;4913244;29;20222;-69
2022/07/27 01:02:08;;;;;;;3.40;3.20;;;20.00;93.60;;;;;;4914736;29;20414;-69
2022/07/27 01:04:34;;;;;;;2.97;2.77;;;19.90;93.80;;;;;;4915700;29;20415;-69
2022/07/27 01:07:01;;;;;;;3.70;3.27;;;19.90;94.40;;;;;;4929311;29;20445;-70
2022/07/27 01:12:16;;;;;;;3.30;3.10;;;19.90;94.60;;;;;;4916835;29;20406;-70
2022/07/27 01:14:42;;;;;;;3.47;3.27;;;19.90;94.90;;;;;;4918368;29;20478;-70
2022/07/27 01:17:08;;;;;;;3.30;3.00;;;19.90;94.70;;;;;;4918309;29;20754;-69
2022/07/27 01:19:34;;;;;;;3.90;3.03;;;19.90;94.80;;;;;;4919180;29;20558;-69
2022/07/27 01:22:05;;;;;;;2.77;2.67;;;19.80;95.50;;;;;;4918261;29;20410;-70
2022/07/27 01:24:32;;;;;;;3.30;3.10;;;19.80;94.40;;;;;;4918337;29;20619;-69
2022/07/27 01:27:00;;;;;;;3.47;3.17;;;19.80;94.50;;;;;;4917281;29;20454;-69
2022/07/27 01:29:26;;;;;;;3.37;3.10;;;19.80;94.20;;;;;;4918641;29;20466;-69
2022/07/27 01:31:52;;;;;;;2.83;2.63;;;19.80;94.40;;;;;;4918518;29;20934;-73
2022/07/27 01:34:18;;;;;;;4.77;2.80;;;19.80;94.40;;;;;;4918218;29;20414;-70
2022/07/27 01:36:44;;;;;;;3.73;3.10;;;19.80;94.30;;;;;;4918472;29;20189;-69
2022/07/27 01:39:11;;;;;;;3.03;2.90;;;19.80;94.30;;;;;;4916802;29;20265;-70
2022/07/27 01:41:37;;;;;;;3.17;2.97;;;19.80;94.80;;;;;;4918649;29;20485;-69
2022/07/27 01:44:03;;;;;;;3.73;3.17;;;19.80;94.40;;;;;;4917606;29;20923;-70
2022/07/27 01:46:29;;;;;;;5.20;3.17;;;19.70;94.20;;;;;;4913534;29;20215;-70
2022/07/27 01:48:55;;;;;;;6.13;3.03;;;19.70;94.30;;;;;;4918239;29;20418;-72
2022/07/27 01:51:20;;;;;;;3.30;3.00;;;19.70;94.10;;;;;;4918206;29;20214;-69
2022/07/27 01:53:46;;;;;;;2.90;2.70;;;19.60;94.00;;;;;;4918499;29;20179;-69
2022/07/27 01:56:12;;;;;;;3.60;3.40;;;19.70;94.40;;;;;;4917102;29;20229;-69
2022/07/27 01:58:40;;;;;;;3.30;3.10;;;19.60;94.70;;;;;;4918166;29;20545;-69
2022/07/27 02:01:06;;;;;;;3.10;2.90;;;19.60;94.80;;;;;;4917133;29;20474;-69
2022/07/27 02:03:33;;;;;;;3.30;3.10;;;19.60;94.70;;;;;;4918336;29;20451;-69
2022/07/27 02:05:59;;;;;;;3.27;3.13;;;19.50;95.00;;;;;;4917197;29;20529;-70
2022/07/27 02:08:25;;;;;;;3.43;3.20;;;19.60;95.00;;;;;;4918547;29;20485;-69
2022/07/27 02:13:35;;;;;;;4.20;3.83;;;19.50;95.30;;;;;;4916848;29;20443;-69
2022/07/27 02:16:00;;;;;;;2.90;2.80;;;19.50;95.70;;;;;;4916661;29;20501;-70
2022/07/27 02:18:26;;;;;;;6.20;3.40;;;19.50;95.50;;;;;;4917654;29;20221;-69
2022/07/27 02:20:52;;;;;;;3.47;3.27;;;19.50;95.70;;;;;;4917939;29;20214;-69
2022/07/27 02:23:18;;;;;;;4.00;3.30;;;19.40;95.10;;;;;;4917261;29;21038;-69
2022/07/27 02:25:44;;;;;;;3.10;2.90;;;19.40;95.20;;;;;;4917840;29;20418;-69
2022/07/27 02:28:10;;;;;;;2.90;2.70;;;19.40;95.00;;;;;;4917407;29;20215;-69
2022/07/27 02:30:35;;;;;;;3.93;3.60;;;19.40;95.60;;;;;;4917820;29;20642;-69
2022/07/27 02:33:02;;;;;;;3.00;2.80;;;19.40;95.80;;;;;;4916973;29;20194;-70
2022/07/27 02:35:28;;;;;;;3.10;2.90;;;19.40;95.70;;;;;;4917073;29;20635;-70
2022/07/27 02:37:54;;;;;;;3.07;2.93;;;19.40;95.80;;;;;;4917483;29;20899;-69
2022/07/27 02:40:19;;;;;;;2.80;2.60;;;19.40;96.60;;;;;;4916719;29;20481;-69
2022/07/27 02:42:46;;;;;;;3.03;2.93;;;19.40;96.90;;;;;;4915759;29;20591;-69
2022/07/27 02:45:14;;;;;;;3.10;2.90;;;19.30;96.40;;;;;;4916365;29;20189;-70
2022/07/27 02:47:39;;;;;;;2.83;2.63;;;19.30;96.30;;;;;;4917309;29;20419;-69
2022/07/27 02:50:06;;;;;;;4.40;3.00;;;19.30;97.00;;;;;;4916501;29;20497;-70
2022/07/27 02:52:32;;;;;;;3.17;2.80;;;19.30;97.40;;;;;;4917253;29;20185;-69
2022/07/27 02:54:58;;;;;;;3.10;2.90;;;19.30;97.30;;;;;;4917351;29;20434;-72
2022/07/27 02:57:24;;;;;;;2.80;2.70;;;19.20;96.50;;;;;;4898866;29;20443;-69
2022/07/27 02:59:50;;;;;;;2.90;2.80;;;19.20;96.50;;;;;;4898408;29;20214;-69
2022/07/27 03:02:16;;;;;;;4.90;3.40;;;19.20;96.50;;;;;;4911632;29;20189;-70
2022/07/27 03:04:41;;;;;;;4.03;3.27;;;19.20;96.00;;;;;;4917204;29;20604;-69
2022/07/27 03:07:08;;;;;;;2.93;2.83;;;19.10;97.10;;;;;;4915716;29;20193;-69
2022/07/27 03:09:34;;;;;;;3.50;3.30;;;19.10;96.40;;;;;;4916521;29;20442;-69
2022/07/27 03:12:00;;;;;;;5.00;3.30;;;19.00;95.80;;;;;;4916685;29;20410;-73
2022/07/27 03:14:26;;;;;;;4.63;3.10;;;19.00;96.20;;;;;;4916659;29;20581;-69
2022/07/27 03:16:52;;;;;;;3.30;3.07;;;18.90;96.10;;;;;;4917073;29;20531;-69
2022/07/27 03:19:18;;;;;;;3.30;3.00;;;18.90;96.40;;;;;;4916216;29;20984;-69
2022/07/27 03:21:43;;;;;;;4.70;3.57;;;18.80;96.20;;;;;;4916948;29;20190;-69
2022/07/27 03:24:09;;;;;;;3.10;2.90;;;18.80;96.10;;;;;;4914562;29;20186;-69
2022/07/27 03:26:35;;;;;;;3.50;3.20;;;18.70;96.00;;;;;;4916351;29;20186;-70
2022/07/27 03:29:01;;;;;;;4.10;3.53;;;18.70;96.10;;;;;;4916164;29;20197;-70
2022/07/27 03:31:27;;;;;;;4.23;3.93;;;18.70;96.40;;;;;;4916536;29;20426;-72
2022/07/27 03:33:53;;;;;;;3.33;3.07;;;18.70;96.60;;;;;;4916897;29;20186;-69
2022/07/27 03:36:19;;;;;;;3.40;3.20;;;18.70;96.60;;;;;;4916101;29;20421;-70
2022/07/27 03:38:44;;;;;;;3.40;3.20;;;18.70;97.00;;;;;;4910745;29;20193;-69
2022/07/27 03:41:10;;;;;;;6.23;3.37;;;18.60;97.00;;;;;;4916058;29;20219;-70
2022/07/27 03:43:36;;;;;;;4.53;2.80;;;18.60;97.00;;;;;;4915750;29;20184;-69
2022/07/27 03:46:02;;;;;;;3.80;3.50;;;18.50;97.10;;;;;;4915980;29;20281;-70
2022/07/27 03:48:28;;;;;;;4.70;4.50;;;18.50;97.50;;;;;;4917193;29;20182;-69
2022/07/27 03:50:54;;;;;;;3.67;3.40;;;18.50;97.70;;;;;;4916237;29;20949;-69
2022/07/27 03:53:20;;;;;;;4.13;3.37;;;18.40;97.70;;;;;;4916102;29;20513;-69
2022/07/27 03:55:47;;;;;;;3.60;3.50;;;18.40;97.80;;;;;;4916368;29;20189;-69
2022/07/27 03:58:13;;;;;;;5.70;5.43;;;18.30;97.60;;;;;;4930524;29;20415;-69
2022/07/27 04:00:39;;;;;;;4.47;2.80;;;18.30;97.80;;;;;;4916189;29;20492;-69
2022/07/27 04:03:04;;;;;;;4.10;3.73;;;18.30;97.80;;;;;;4914896;29;20194;-73
2022/07/27 04:05:30;;;;;;;4.20;3.80;;;18.30;99.90;;;;;;4915277;29;20486;-72
2022/07/27 04:07:56;;;;;;;4.30;4.00;;;18.30;99.90;;;;;;4915102;29;20182;-73
2022/07/27 04:10:23;;;;;;;6.70;6.20;;;18.30;99.90;;;;;;4912854;29;20639;-72
2022/07/27 04:12:49;;;;;;;3.87;3.57;;;18.40;99.90;;;;;;4915648;29;20193;-72
2022/07/27 04:15:17;;;;;;;7.30;7.00;;;18.40;99.90;;;;;;4914607;29;20482;-72
2022/07/27 04:17:44;;;;;;;8.20;7.60;;;18.50;99.90;;;;;;4929929;29;20229;-72
2022/07/27 04:20:10;;;;;;;3.73;3.43;;;18.60;99.90;;;;;;4914187;29;20500;-72
2022/07/27 04:22:36;;;;;;;4.37;3.40;;;18.70;99.90;;;;;;4919634;29;20426;-72
2022/07/27 04:25:02;;;;;;;8.33;7.63;;;18.80;99.90;;;;;;4914013;29;20457;-74
2022/07/27 04:27:28;;;;;;;5.87;5.57;;;18.80;99.90;;;;;;4915194;29;20193;-72
2022/07/27 04:29:54;;;;;;;3.03;2.87;;;18.80;99.90;;;;;;4915782;29;20430;-72
2022/07/27 04:32:20;;;;;;;3.53;3.33;;;18.90;98.60;;;;;;4915236;29;20175;-72
2022/07/27 04:34:46;;;;;;;6.63;6.13;;;18.90;97.90;;;;;;4914351;29;20635;-72
2022/07/27 04:37:11;;;;;;;4.90;4.50;;;18.90;97.80;;;;;;4914902;29;20778;-72
2022/07/27 04:39:37;;;;;;;3.80;3.43;;;18.80;97.80;;;;;;4915452;29;20501;-73
2022/07/27 04:42:03;;;;;;;3.30;3.03;;;18.80;97.80;;;;;;4915918;29;20496;-75
2022/07/27 04:44:29;;;;;;;4.23;4.00;;;18.70;97.70;;;;;;4915302;29;20649;-72
2022/07/27 04:46:54;;;;;;;3.60;3.30;;;18.70;98.00;;;;;;4916735;29;20198;-72
2022/07/27 04:49:20;;;;;;;4.97;4.57;;;18.70;98.30;;;;;;4919337;29;20185;-72
2022/07/27 04:51:46;;;;;;;6.40;3.80;;;18.60;98.30;;;;;;4918782;29;20283;-72
2022/07/27 04:54:12;;;;;;;7.47;3.70;;;18.60;98.30;;;;;;4918896;29;20661;-72
2022/07/27 04:56:38;;;;;;;4.00;3.70;;;18.60;98.60;;;;;;4917781;29;20191;-72
2022/07/27 04:59:04;;;;;;;4.47;4.17;;;18.60;99.20;;;;;;4919928;29;20186;-72
2022/07/27 05:01:29;;;;;;;3.13;2.93;;;18.60;99.50;;;;;;4918146;29;20315;-72
2022/07/27 05:03:55;;;;;;;3.23;2.93;;;18.60;99.60;;;;;;4918501;29;20460;-72
2022/07/27 05:06:21;;;;;;;3.50;3.20;;;18.60;99.20;;;;;;4918598;29;20218;-72
2022/07/27 05:08:46;;;;;;;4.20;2.90;;;18.60;99.30;;;;;;4919260;29;20245;-72
2022/07/27 05:11:12;;;;;;;3.10;2.90;;;18.70;99.40;;;;;;4917405;29;20225;-72
2022/07/27 05:13:41;;;;;;;4.73;3.00;;;18.60;99.40;;;;;;4919567;29;20186;-72
2022/07/27 05:16:09;;;;;;;6.40;5.10;;;18.70;99.30;;;;;;4881349;29;20198;-72
2022/07/27 05:18:36;;;;;;;3.80;3.60;;;18.60;99.90;;;;;;4881499;29;20917;-72
2022/07/27 05:21:02;;;;;;;3.67;3.37;;;18.60;99.30;;;;;;4881776;29;20519;-72
2022/07/27 05:23:28;;;;;;;4.83;4.40;;;18.60;98.80;;;;;;4881308;29;20513;-72
2022/07/27 05:25:54;;;;;;;4.73;4.40;;;18.60;99.00;;;;;;4881405;29;20961;-72
2022/07/27 05:28:19;;;;;;;5.27;4.80;;;18.60;99.30;;;;;;4881173;29;20254;-72
2022/07/27 05:30:45;;;;;;;3.30;3.10;;;18.70;99.10;;;;;;4880254;29;20267;-72
2022/07/27 05:33:11;;;;;;;4.90;3.70;;;18.60;99.60;;;;;;4881326;29;20336;-72
2022/07/27 05:35:37;;;;;;;3.43;3.13;;;18.70;99.00;;;;;;4881645;29;20740;-72
2022/07/27 05:38:03;;;;;;;4.10;3.10;;;18.70;99.00;;;;;;4881734;29;20175;-72
2022/07/27 05:40:29;;;;;;;3.80;3.47;;;18.70;98.50;;;;;;4880929;29;20211;-72
2022/07/27 05:42:55;;;;;;;4.50;3.83;;;18.80;99.20;;;;;;4881356;29;20412;-72
2022/07/27 05:45:21;;;;;;;4.30;4.00;;;18.80;98.60;;;;;;4881052;29;20430;-72
2022/07/27 05:47:47;;;;;;;3.60;3.30;;;18.80;98.20;;;;;;4881252;29;20420;-72
2022/07/27 05:50:13;;;;;;;3.23;2.97;;;18.80;99.00;;;;;;4878845;29;20276;-72
2022/07/27 05:52:39;;;;;;;3.60;3.30;;;18.90;97.90;;;;;;4881322;29;20188;-72
2022/07/27 05:55:05;;;;;;;4.27;2.87;;;18.90;98.20;;;;;;4880972;29;20989;-72
2022/07/27 05:57:31;;;;;;;3.57;3.27;;;18.90;98.00;;;;;;4857010;29;20212;-72
2022/07/27 05:59:57;;;;;;;3.40;3.10;;;18.90;98.20;;;;;;4853733;29;20540;-72
2022/07/27 06:02:24;;;;;;;3.63;2.77;;;19.00;97.20;;;;;;4880238;29;20195;-72
2022/07/27 06:04:50;;;;;;;3.17;2.80;;;19.00;97.40;;;;;;4877167;29;20435;-72
2022/07/27 06:09:59;;;;;;;3.17;2.87;;;19.00;97.50;;;;;;4881281;29;20255;-72
2022/07/27 06:12:26;;;;;;;3.67;3.40;;;19.10;97.30;;;;;;4879307;29;20565;-72
2022/07/27 06:14:52;;;;;;;3.87;3.60;;;19.10;97.60;;;;;;4899448;29;20577;-72
2022/07/27 06:17:18;;;;;;;3.70;3.40;;;19.10;96.60;;;;;;4915519;29;20434;-74
2022/07/27 06:19:44;;;;;;;6.47;6.07;;;19.10;96.70;;;;;;4914300;29;20447;-69
2022/07/27 06:22:10;;;;;;;2.60;2.40;;;19.20;96.50;;;;;;4908428;29;20531;-75
2022/07/27 06:24:35;;;;;;;5.80;5.30;;;19.20;99.10;;;;;;4915907;29;20217;-70
2022/07/27 06:27:01;;;;;;;6.07;5.67;;;19.30;96.50;;;;;;4917565;29;20533;-69
2022/07/27 06:29:27;;;;;;;5.77;2.60;;;19.30;95.60;;;;;;4917179;29;20656;-70
2022/07/27 06:31:53;;;;;;;6.37;5.97;;;19.30;95.40;;;;;;4916185;29;20553;-70
2022/07/27 06:34:19;;;;;;;5.90;5.60;;;19.30;95.20;;;;;;4915898;29;20442;-71
2022/07/27 06:36:44;;;;;;;3.33;3.00;;;19.30;94.80;;;;;;4917745;29;20559;-70
2022/07/27 06:39:11;;;;;;;4.87;4.53;;;19.30;95.20;;;;;;4916989;29;20270;-73
2022/07/27 06:41:37;;;;;;;5.70;4.20;;;19.30;95.10;;;;;;4917545;29;20309;-70
2022/07/27 06:44:03;;;;;;;3.33;2.83;;;19.30;95.40;;;;;;4917697;29;20438;-70
2022/07/27 06:46:29;;;;;;;5.80;5.37;;;19.30;95.00;;;;;;4899619;29;20252;-70
2022/07/27 06:48:55;;;;;;;6.10;5.57;;;19.30;95.40;;;;;;4917625;29;20544;-70
2022/07/27 06:51:22;;;;;;;3.73;2.83;;;19.30;95.00;;;;;;4916073;29;20286;-70
2022/07/27 06:53:51;;;;;;;4.70;2.77;;;19.30;95.50;;;;;;4917287;29;20442;-70
2022/07/27 06:56:18;;;;;;;5.13;4.93;;;19.30;95.00;;;;;;4916230;29;20946;-71
2022/07/27 06:58:44;;;;;;;3.73;3.43;;;19.20;94.80;;;;;;4916168;29;20449;-72
2022/07/27 07:01:09;;;;;;;3.57;3.33;;;19.20;94.90;;;;;;4914930;29;20875;-72
2022/07/27 07:03:35;;;;;;;4.47;2.87;;;19.20;95.50;;;;;;4908551;29;20197;-71
2022/07/27 07:06:01;;;;;;;4.73;3.07;;;19.20;95.30;;;;;;4911992;29;20193;-72
2022/07/27 07:08:27;;;;;;;5.07;3.80;;;19.20;95.50;;;;;;4916276;29;20175;-72
2022/07/27 07:10:53;;;;;;;7.13;4.13;;;19.20;95.50;;;;;;4916558;29;20191;-72
2022/07/27 07:13:19;;;;;;;6.13;5.57;;;19.20;95.90;;;;;;4916486;29;20222;-72
2022/07/27 07:15:45;;;;;;;3.93;2.80;;;19.30;96.70;;;;;;4916365;29;20508;-72
2022/07/27 07:18:11;;;;;;;4.63;3.13;;;19.30;96.20;;;;;;4917433;29;20189;-71
2022/07/27 07:20:38;;;;;;;3.93;2.60;;;19.30;96.50;;;;;;4915313;29;20213;-71
2022/07/27 07:23:04;;;;;;;4.30;4.00;;;19.40;95.90;;;;;;4915798;29;20438;-73
2022/07/27 07:25:31;;;;;;;4.17;2.70;;;19.40;96.10;;;;;;4915013;29;20438;-71
2022/07/27 07:27:57;;;;;;;3.83;3.43;;;19.50;94.80;;;;;;4916682;29;20426;-71
2022/07/27 07:30:23;;;;;;;2.60;2.50;;;19.60;94.80;;;;;;4915582;29;20493;-71
2022/07/27 07:32:49;;;;;;;3.13;2.83;;;19.70;94.30;;;;;;4915584;29;20915;-71
2022/07/27 07:35:15;;;;;;;4.17;2.43;;;19.80;94.30;;;;;;4915386;29;20612;-72
2022/07/27 07:37:41;;;;;;;2.30;2.20;;;19.90;92.40;;;;;;4916833;29;20534;-71
2022/07/27 07:40:09;;;;;;;3.00;2.80;;;20.00;92.40;;;;;;4916961;29;20469;-71
2022/07/27 07:42:52;;;;;;;4.83;2.80;;;20.10;93.10;;;;;;4915715;29;20186;-72
2022/07/27 07:45:19;;;;;;;3.17;2.93;;;20.20;92.80;;;;;;4897712;29;20435;-71
2022/07/27 07:47:45;;;;;;;3.53;2.83;;;20.30;92.20;;;;;;4883516;29;20426;-71
2022/07/27 07:50:11;;;;;;;3.20;3.00;;;20.40;91.10;;;;;;4916358;29;20828;-71
2022/07/27 07:52:37;;;;;;;3.10;2.73;;;20.50;90.60;;;;;;4915845;29;20204;-71
2022/07/27 07:55:03;;;;;;;3.03;2.90;;;20.50;90.30;;;;;;4916789;29;20429;-72
2022/07/27 07:57:29;;;;;;;3.33;3.03;;;20.70;90.80;;;;;;4915154;29;20202;-71
2022/07/27 07:59:55;;;;;;;3.20;2.97;;;20.80;90.10;;;;;;4916253;29;20954;-71
2022/07/27 08:02:20;;;;;;;2.80;2.70;;;20.90;90.40;;;;;;4915763;29;20198;-71
2022/07/27 08:04:46;;;;;;;3.63;3.30;;;21.00;87.40;;;;;;4916595;29;20182;-71
2022/07/27 08:07:12;;;;;;;3.03;2.93;;;21.00;88.10;;;;;;4915851;29;20678;-71
2022/07/27 08:09:38;;;;;;;3.90;3.67;;;21.00;90.10;;;;;;4915872;29;20186;-71
2022/07/27 08:12:05;;;;;;;4.00;2.47;;;21.00;90.10;;;;;;4916451;29;20596;-71
2022/07/27 08:14:32;;;;;;;2.63;2.53;;;20.90;90.60;;;;;;4915086;29;20480;-71
2022/07/27 08:16:58;;;;;;;4.47;2.87;;;20.90;89.20;;;;;;4913227;29;20434;-71
2022/07/27 08:19:24;;;;;;;2.20;2.00;;;20.80;89.00;;;;;;4914651;29;20455;-71
2022/07/27 08:21:50;;;;;;;3.33;2.37;;;20.90;90.40;;;;;;4915512;29;20254;-72
2022/07/27 08:24:15;;;;;;;5.60;2.30;;;20.90;89.20;;;;;;4916151;29;20186;-72
2022/07/27 08:26:41;;;;;;;3.70;2.70;;;21.00;90.40;;;;;;4914606;29;20450;-71
2022/07/27 08:29:07;;;;;;;3.97;2.60;;;21.00;90.20;;;;;;4916441;29;20179;-71
2022/07/27 08:31:32;;;;;;;3.47;2.80;;;21.00;88.20;;;;;;4915759;29;20194;-71
2022/07/27 08:33:58;;;;;;;2.97;2.40;;;21.00;88.40;;;;;;4916401;29;20181;-71
2022/07/27 08:36:24;;;;;;;4.10;3.90;;;21.00;89.20;;;;;;4915535;29;20262;-72
2022/07/27 08:38:50;;;;;;;7.10;2.80;;;21.10;89.30;;;;;;4916093;29;20178;-72
2022/07/27 08:41:18;;;;;;;2.80;2.60;;;21.20;89.00;;;;;;4916048;29;20665;-71
2022/07/27 08:43:47;;;;;;;4.00;3.80;;;21.30;88.60;;;;;;4916330;29;20182;-71
2022/07/27 08:46:16;;;;;;;3.43;2.03;;;21.40;88.20;;;;;;4916243;29;20426;-71
2022/07/27 08:48:43;;;;;;;2.10;2.00;;;21.50;86.50;;;;;;4915702;29;20509;-71
2022/07/27 08:51:12;;;;;;;5.27;2.20;;;21.50;84.00;;;;;;4916241;29;20411;-72
2022/07/27 08:53:38;;;;;;;3.00;2.07;;;21.50;86.80;;;;;;4914995;29;20743;-71
2022/07/27 08:56:03;;;;;;;2.87;2.60;;;21.60;86.90;;;;;;4913512;29;20578;-71
2022/07/27 08:58:29;;;;;;;2.37;2.13;;;21.90;84.20;;;;;;4915486;29;20186;-71
2022/07/27 09:00:55;;;;;;;2.60;2.50;;;22.00;82.20;;;;;;4916061;29;20217;-71
2022/07/27 09:03:22;;;;;;;2.50;2.37;;;22.10;82.60;;;;;;4915516;29;20535;-72
2022/07/27 09:05:57;;;;;;;2.80;2.70;;;22.40;82.30;;;;;;4916108;29;20179;-71
2022/07/27 09:08:27;;;;;;;2.70;2.60;;;22.60;79.00;;;;;;4915595;29;20772;-72
2022/07/27 09:10:55;;;;;;;2.40;2.30;;;22.70;78.20;;;;;;4916063;29;20442;-71
2022/07/27 09:13:28;;;;;;;2.77;2.50;;;22.80;75.60;;;;;;4915287;29;20427;-72
2022/07/27 09:15:59;;;;;;;3.60;2.77;;;22.90;73.30;;;;;;4913217;29;20816;-72
2022/07/27 09:18:28;;;;;;;2.07;1.97;;;23.00;77.10;;;;;;4915398;29;20422;-72
2022/07/27 09:21:07;;;;;;;2.07;1.97;;;23.20;75.50;;;;;;4915885;29;20450;-71
2022/07/27 09:23:33;;;;;;;1.80;1.80;;;23.30;72.20;;;;;;4897520;29;20437;-71
2022/07/27 09:26:28;;;;;;;3.23;2.90;;;23.40;73.20;;;;;;4915525;29;20414;-71
2022/07/27 09:28:59;;;;;;;2.60;2.40;;;23.50;69.80;;;;;;4915313;29;20190;-72
2022/07/27 09:31:25;;;;;;;2.57;2.37;;;23.30;71.60;;;;;;4915291;29;20454;-71
2022/07/27 09:33:52;;;;;;;2.30;2.20;;;23.30;70.00;;;;;;4917366;29;20465;-72
2022/07/27 09:36:21;;;;;;;1.93;1.83;;;23.10;69.10;;;;;;4918707;29;20174;-72
2022/07/27 09:38:49;;;;;;;3.77;3.67;;;23.00;71.70;;;;;;4919194;29;20450;-72
2022/07/27 09:41:15;;;;;;;3.10;1.83;;;23.10;72.30;;;;;;4919159;29;20556;-71
2022/07/27 09:43:52;;;;;;;3.40;2.03;;;23.20;72.40;;;;;;4917543;29;21075;-71
2022/07/27 09:46:33;;;;;;;4.20;4.10;;;23.30;72.00;;;;;;4919136;29;20194;-72
2022/07/27 09:49:00;;;;;;;3.70;3.40;;;23.50;72.00;;;;;;4919393;29;20839;-71
2022/07/27 09:51:25;;;;;;;2.47;2.27;;;23.70;74.80;;;;;;4917181;29;20794;-71
2022/07/27 09:53:53;;;;;;;2.63;2.43;;;23.80;71.20;;;;;;4919020;29;20406;-71
2022/07/27 09:56:25;;;;;;;4.43;2.43;;;23.80;71.40;;;;;;4918895;29;20265;-71
2022/07/27 09:58:57;;;;;;;3.60;2.83;;;23.80;73.60;;;;;;4918931;29;20494;-71
2022/07/27 10:01:24;;;;;;;2.33;2.10;;;23.80;70.00;;;;;;4917059;29;20880;-72
2022/07/27 10:03:56;;;;;;;2.30;2.20;;;23.80;69.30;;;;;;4917859;29;20436;-71
2022/07/27 10:06:23;;;;;;;2.47;2.27;;;23.70;69.00;;;;;;4916906;29;20441;-71
2022/07/27 10:08:50;;;;;;;3.90;3.70;;;23.50;67.70;;;;;;4918714;29;20475;-72
2022/07/27 10:11:18;;;;;;;3.00;2.80;;;23.40;68.50;;;;;;4918590;29;20430;-71
2022/07/27 10:13:44;;;;;;;3.13;2.93;;;23.30;69.00;;;;;;4917524;29;20466;-71
2022/07/27 10:16:25;;;;;;;2.70;2.50;;;23.10;69.70;;;;;;4918628;29;20407;-72
2022/07/27 10:19:07;;;;;;;2.30;2.20;;;23.00;71.20;;;;;;4918510;29;20432;-72
2022/07/27 10:21:35;;;;;;;1.97;1.87;;;22.90;69.90;;;;;;4917650;29;20490;-72
2022/07/27 10:24:06;;;;;;;2.37;2.27;;;22.80;68.90;;;;;;4915987;29;20414;-72
2022/07/27 10:26:36;;;;;;;3.80;2.43;;;22.80;71.90;;;;;;4915442;29;20415;-72
2022/07/27 10:29:12;;;;;;;4.27;2.60;;;22.80;68.90;;;;;;4916084;29;20926;-71
2022/07/27 10:31:43;;;;;;;2.70;2.50;;;22.90;72.50;;;;;;4915402;29;20489;-72
2022/07/27 10:34:11;;;;;;;2.43;2.23;;;23.20;71.90;;;;;;4913819;29;20478;-71
2022/07/27 10:36:46;;;;;;;2.70;2.50;;;23.50;68.70;;;;;;4868452;29;20407;-72
2022/07/27 10:39:26;;;;;;;4.37;4.07;;;23.90;70.20;;;;;;4915803;29;20866;-71
2022/07/27 10:41:52;;;;;;;4.30;4.00;;;24.20;69.90;;;;;;4915830;29;20541;-71
2022/07/27 10:44:20;;;;;;;3.80;2.70;;;24.40;66.60;;;;;;4915522;29;20434;-71
2022/07/27 10:46:54;;;;;;;2.90;2.70;;;24.50;66.90;;;;;;4915127;29;20530;-71
2022/07/27 10:49:24;;;;;;;4.93;4.60;;;24.50;68.90;;;;;;4915516;29;20422;-71
2022/07/27 10:51:54;;;;;;;4.37;4.27;;;24.50;69.60;;;;;;4915823;29;20867;-72
2022/07/27 10:54:21;;;;;;;1.93;1.80;;;24.50;68.90;;;;;;4915971;29;20429;-71
2022/07/27 10:56:49;;;;;;;2.30;2.13;;;24.70;68.40;;;;;;4917120;29;20433;-72
2022/07/27 10:59:34;;;;;;;4.30;2.93;;;24.60;64.30;;;;;;4916472;29;20437;-71
2022/07/27 11:02:00;;;;;;;3.93;2.87;;;24.50;66.20;;;;;;4916359;29;20497;-71
2022/07/27 11:04:26;;;;;;;4.90;4.70;;;24.40;65.80;;;;;;4916624;29;20529;-76
2022/07/27 11:06:56;;;;;;;2.03;1.93;;;24.40;66.50;;;;;;4932242;29;20257;-71
2022/07/27 11:09:22;;;;;;;2.97;2.77;;;24.30;68.50;;;;;;4917819;29;20423;-71
2022/07/27 11:11:48;;;;;;;2.60;2.43;;;24.20;65.50;;;;;;4916985;29;20418;-72
2022/07/27 11:14:14;;;;;;;3.20;3.00;;;24.10;67.40;;;;;;4917348;29;20473;-71
2022/07/27 11:16:40;;;;;;;2.90;2.80;;;24.00;65.90;;;;;;4916812;29;20441;-72
2022/07/27 11:19:06;;;;;;;5.07;3.77;;;23.90;66.80;;;;;;4917494;29;20196;-71
2022/07/27 11:21:37;;;;;;;2.13;1.83;;;23.80;65.30;;;;;;4916729;29;20292;-72
2022/07/27 11:24:15;;;;;;;3.10;2.20;;;23.70;65.50;;;;;;4917362;29;20414;-71
2022/07/27 11:26:45;;;;;;;2.10;2.00;;;23.60;67.80;;;;;;4916701;29;20429;-71
2022/07/27 11:29:12;;;;;;;3.43;3.20;;;23.50;66.90;;;;;;4916927;29;20514;-71
2022/07/27 11:31:40;;;;;;;3.20;2.90;;;23.50;68.00;;;;;;4915701;29;20958;-72
2022/07/27 11:34:06;;;;;;;2.50;2.30;;;23.40;67.50;;;;;;4916441;29;20511;-71
2022/07/27 11:36:45;;;;;;;2.60;2.50;;;23.50;70.80;;;;;;4916502;29;20422;-72
2022/07/27 11:39:13;;;;;;;2.63;2.53;;;23.70;73.10;;;;;;4916928;29;20763;-71
2022/07/27 11:41:41;;;;;;;3.10;2.90;;;24.00;73.20;;;;;;4916309;29;20541;-71
2022/07/27 11:44:13;;;;;;;2.77;2.67;;;24.30;67.80;;;;;;4917030;29;20509;-71
2022/07/27 11:46:41;;;;;;;3.30;3.00;;;24.60;67.60;;;;;;4916431;29;20456;-71
2022/07/27 11:49:11;;;;;;;2.77;2.57;;;24.80;64.20;;;;;;4916071;29;20442;-71
2022/07/27 11:51:43;;;;;;;2.97;2.37;;;24.80;60.90;;;;;;4916298;29;20841;-71
2022/07/27 11:54:19;;;;;;;2.60;2.40;;;24.70;59.30;;;;;;4916822;29;20427;-71
2022/07/27 11:56:48;;;;;;;2.50;2.40;;;24.50;60.10;;;;;;4915800;29;20398;-71
2022/07/27 11:59:19;;;;;;;2.90;2.20;;;24.30;59.50;;;;;;4916714;29;20410;-71
2022/07/27 12:01:53;;;;;;;3.70;1.93;;;24.20;61.20;;;;;;4916107;29;20538;-71
2022/07/27 12:04:26;;;;;;;2.33;2.23;;;24.10;62.30;;;;;;4916502;29;20452;-71
2022/07/27 12:07:04;;;;;;;4.20;4.00;;;24.10;61.70;;;;;;4916102;29;20501;-71
2022/07/27 12:09:34;;;;;;;3.17;2.97;;;24.10;64.60;;;;;;4915837;29;20422;-73
2022/07/27 12:12:14;;;;;;;2.97;2.77;;;24.00;61.40;;;;;;4916617;29;20418;-71
2022/07/27 12:14:44;;;;;;;2.57;2.20;;;24.00;62.20;;;;;;4915914;29;20521;-71
2022/07/27 12:17:32;;;;;;;4.90;4.70;;;23.90;62.20;;;;;;4916569;29;20440;-71
2022/07/27 12:20:04;;;;;;;2.90;2.70;;;23.80;62.70;;;;;;4915624;29;21032;-72
2022/07/27 12:22:42;;;;;;;2.97;2.77;;;23.70;63.60;;;;;;4914671;29;20458;-71
2022/07/27 12:25:28;;;;;;;2.53;2.30;;;23.60;62.40;;;;;;4916462;29;20414;-72
2022/07/27 12:28:12;;;;;;;1.77;1.67;;;23.50;62.70;;;;;;4915954;29;20434;-71
2022/07/27 12:30:39;;;;;;;4.03;2.33;;;23.50;64.90;;;;;;4915677;29;20418;-71
2022/07/27 12:33:28;;;;;;;2.27;2.17;;;23.50;65.20;;;;;;4916317;29;20554;-71
2022/07/27 12:35:54;;;;;;;2.40;2.30;;;23.80;64.60;;;;;;4915826;29;20494;-71
2022/07/27 12:38:20;;;;;;;2.80;2.50;;;24.00;61.60;;;;;;4916065;29;20427;-72
2022/07/27 12:40:47;;;;;;;2.57;2.37;;;24.30;63.10;;;;;;4915725;29;20947;-71
2022/07/27 12:43:20;;;;;;;2.80;2.60;;;24.40;62.30;;;;;;4914072;29;20193;-71
2022/07/27 12:45:47;;;;;;;2.00;1.90;;;24.70;60.30;;;;;;4915717;29;20492;-71
2022/07/27 12:48:17;;;;;;;3.47;2.53;;;24.70;57.10;;;;;;4915813;29;20441;-71
2022/07/27 12:50:45;;;;;;;2.93;2.43;;;24.70;57.20;;;;;;4915577;29;20427;-72
2022/07/27 12:53:13;;;;;;;2.30;2.10;;;24.50;55.70;;;;;;4916220;29;20433;-71
2022/07/27 12:55:40;;;;;;;3.60;3.30;;;24.40;58.00;;;;;;4915643;29;20419;-72
2022/07/27 12:58:10;;;;;;;2.53;2.43;;;24.30;60.30;;;;;;4916178;29;20414;-71